sensor_id;sensor_type;location;lat;lon;timestamp;P1;durP1;ratioP1;P2;durP2;ratioP2
11510;SDS011;5812;48.864;9.190;2022-11-20T00:00:49;11.07;;;11.07;;
11510;SDS011;5812;48.864;9.190;2022-11-20T00:03:15;10.47;;;10.47;;
11510;SDS011;5812;48.864;9.190;2022-11-20T00:05:40;10.90;;;10.80;;
11510;SDS011;5812;48.864;9.190;2022-11-20T00:08:06;10.93;;;10.93;;
11510;SDS011;5812;48.864;9.190;2022-11-20T00:10:31;11.00;;;10.90;;
11510;SDS011;5812;48.864;9.190;2022-11-20T00:12:57;10.63;;;10.63;;
11510;SDS011;5812;48.864;9.190;2022-11-20T00:15:23;9.03;;;9.03;;
11510;SDS011;5812;48.864;9.190;2022-11-20T00:17:49;11.93;;;11.83;;
11510;SDS011;5812;48.864;9.190;2022-11-20T00:20:15;10.90;;;10.90;;
11510;SDS011;5812;48.864;9.190;2022-11-20T00:22:40;10.70;;;10.70;;
11510;SDS011;5812;48.864;9.190;2022-11-20T00:25:06;10.77;;;10.77;;
11510;SDS011;5812;48.864;9.190;2022-11-20T00:27:32;11.47;;;11.37;;
11510;SDS011;5812;48.864;9.190;2022-11-20T00:29:57;12.00;;;11.90;;
11510;SDS011;5812;48.864;9.190;2022-11-20T00:32:23;11.80;;;11.70;;
11510;SDS011;5812;48.864;9.190;2022-11-20T00:34:49;12.20;;;12.10;;
11510;SDS011;5812;48.864;9.190;2022-11-20T00:37:14;11.27;;;11.27;;
11510;SDS011;5812;48.864;9.190;2022-11-20T00:39:40;11.60;;;11.53;;
11510;SDS011;5812;48.864;9.190;2022-11-20T00:42:06;11.93;;;11.83;;
11510;SDS011;5812;48.864;9.190;2022-11-20T00:44:31;10.87;;;10.87;;
11510;SDS011;5812;48.864;9.190;2022-11-20T00:46:57;11.70;;;11.70;;
11510;SDS011;5812;48.864;9.190;2022-11-20T00:49:22;11.73;;;11.73;;
11510;SDS011;5812;48.864;9.190;2022-11-20T00:51:48;13.20;;;13.10;;
11510;SDS011;5812;48.864;9.190;2022-11-20T00:54:13;12.40;;;12.30;;
11510;SDS011;5812;48.864;9.190;2022-11-20T00:56:39;11.83;;;11.83;;
11510;SDS011;5812;48.864;9.190;2022-11-20T00:59:05;12.00;;;11.90;;
11510;SDS011;5812;48.864;9.190;2022-11-20T01:01:30;13.10;;;13.00;;
11510;SDS011;5812;48.864;9.190;2022-11-20T01:03:57;12.87;;;12.77;;
11510;SDS011;5812;48.864;9.190;2022-11-20T01:06:25;13.13;;;13.03;;
11510;SDS011;5812;48.864;9.190;2022-11-20T01:08:53;12.90;;;12.80;;
11510;SDS011;5812;48.864;9.190;2022-11-20T01:11:21;13.00;;;12.90;;
11510;SDS011;5812;48.864;9.190;2022-11-20T01:13:52;11.37;;;11.37;;
11510;SDS011;5812;48.864;9.190;2022-11-20T01:16:19;12.30;;;12.20;;
11510;SDS011;5812;48.864;9.190;2022-11-20T01:18:47;11.87;;;11.77;;
11510;SDS011;5812;48.864;9.190;2022-11-20T01:21:18;11.97;;;11.97;;
11510;SDS011;5812;48.864;9.190;2022-11-20T01:23:55;10.67;;;10.67;;
11510;SDS011;5812;48.864;9.190;2022-11-20T01:26:25;12.60;;;12.57;;
11510;SDS011;5812;48.864;9.190;2022-11-20T01:28:53;11.47;;;11.47;;
11510;SDS011;5812;48.864;9.190;2022-11-20T01:31:21;11.93;;;11.93;;
11510;SDS011;5812;48.864;9.190;2022-11-20T01:33:49;11.23;;;11.23;;
11510;SDS011;5812;48.864;9.190;2022-11-20T01:36:17;11.63;;;11.53;;
11510;SDS011;5812;48.864;9.190;2022-11-20T01:38:44;10.60;;;10.60;;
11510;SDS011;5812;48.864;9.190;2022-11-20T01:41:10;11.30;;;11.30;;
11510;SDS011;5812;48.864;9.190;2022-11-20T01:43:57;11.43;;;11.43;;
11510;SDS011;5812;48.864;9.190;2022-11-20T01:46:23;10.83;;;10.83;;
11510;SDS011;5812;48.864;9.190;2022-11-20T01:48:57;10.50;;;10.50;;
11510;SDS011;5812;48.864;9.190;2022-11-20T01:51:39;9.90;;;9.90;;
11510;SDS011;5812;48.864;9.190;2022-11-20T01:54:12;10.50;;;10.50;;
11510;SDS011;5812;48.864;9.190;2022-11-20T01:56:51;8.97;;;8.97;;
11510;SDS011;5812;48.864;9.190;2022-11-20T01:59:20;9.47;;;9.47;;
11510;SDS011;5812;48.864;9.190;2022-11-20T02:01:47;8.33;;;8.33;;
11510;SDS011;5812;48.864;9.190;2022-11-20T02:04:13;9.30;;;9.30;;
11510;SDS011;5812;48.864;9.190;2022-11-20T02:06:55;9.60;;;9.60;;
11510;SDS011;5812;48.864;9.190;2022-11-20T02:09:27;10.10;;;10.10;;
11510;SDS011;5812;48.864;9.190;2022-11-20T02:11:53;10.00;;;10.00;;
11510;SDS011;5812;48.864;9.190;2022-11-20T02:14:20;9.83;;;9.83;;
11510;SDS011;5812;48.864;9.190;2022-11-20T02:16:47;9.67;;;9.67;;
11510;SDS011;5812;48.864;9.190;2022-11-20T02:19:26;10.47;;;10.47;;
11510;SDS011;5812;48.864;9.190;2022-11-20T02:21:59;9.90;;;9.90;;
11510;SDS011;5812;48.864;9.190;2022-11-20T02:24:32;9.30;;;9.30;;
11510;SDS011;5812;48.864;9.190;2022-11-20T02:26:59;9.50;;;9.50;;
11510;SDS011;5812;48.864;9.190;2022-11-20T02:32:19;10.23;;;10.23;;
11510;SDS011;5812;48.864;9.190;2022-11-20T02:34:50;9.37;;;9.37;;
11510;SDS011;5812;48.864;9.190;2022-11-20T02:37:16;9.37;;;9.37;;
11510;SDS011;5812;48.864;9.190;2022-11-20T02:39:43;10.30;;;10.30;;
11510;SDS011;5812;48.864;9.190;2022-11-20T02:42:10;9.57;;;9.57;;
11510;SDS011;5812;48.864;9.190;2022-11-20T02:44:36;9.73;;;9.73;;
11510;SDS011;5812;48.864;9.190;2022-11-20T02:47:02;10.53;;;10.53;;
11510;SDS011;5812;48.864;9.190;2022-11-20T02:49:28;9.50;;;9.50;;
11510;SDS011;5812;48.864;9.190;2022-11-20T02:51:53;9.10;;;9.10;;
11510;SDS011;5812;48.864;9.190;2022-11-20T02:54:19;7.97;;;7.97;;
11510;SDS011;5812;48.864;9.190;2022-11-20T02:56:44;7.40;;;7.40;;
11510;SDS011;5812;48.864;9.190;2022-11-20T02:59:10;7.10;;;7.10;;
11510;SDS011;5812;48.864;9.190;2022-11-20T03:01:35;7.60;;;7.60;;
11510;SDS011;5812;48.864;9.190;2022-11-20T03:04:01;6.90;;;6.90;;
11510;SDS011;5812;48.864;9.190;2022-11-20T03:06:27;6.53;;;6.53;;
11510;SDS011;5812;48.864;9.190;2022-11-20T03:08:53;6.37;;;6.37;;
11510;SDS011;5812;48.864;9.190;2022-11-20T03:11:19;5.60;;;5.60;;
11510;SDS011;5812;48.864;9.190;2022-11-20T03:13:44;6.00;;;6.00;;
11510;SDS011;5812;48.864;9.190;2022-11-20T03:16:14;4.80;;;4.80;;
11510;SDS011;5812;48.864;9.190;2022-11-20T03:18:42;5.23;;;5.23;;
11510;SDS011;5812;48.864;9.190;2022-11-20T03:21:08;4.90;;;4.90;;
11510;SDS011;5812;48.864;9.190;2022-11-20T03:23:35;4.47;;;4.47;;
11510;SDS011;5812;48.864;9.190;2022-11-20T03:26:09;4.67;;;4.67;;
11510;SDS011;5812;48.864;9.190;2022-11-20T03:28:46;5.00;;;5.00;;
11510;SDS011;5812;48.864;9.190;2022-11-20T03:31:18;4.53;;;4.53;;
11510;SDS011;5812;48.864;9.190;2022-11-20T03:33:45;4.77;;;4.77;;
11510;SDS011;5812;48.864;9.190;2022-11-20T03:36:12;4.83;;;4.83;;
11510;SDS011;5812;48.864;9.190;2022-11-20T03:38:40;3.80;;;3.80;;
11510;SDS011;5812;48.864;9.190;2022-11-20T03:41:07;4.27;;;4.27;;
11510;SDS011;5812;48.864;9.190;2022-11-20T03:43:35;4.50;;;4.50;;
11510;SDS011;5812;48.864;9.190;2022-11-20T03:46:00;4.40;;;4.40;;
11510;SDS011;5812;48.864;9.190;2022-11-20T03:48:27;4.23;;;4.23;;
11510;SDS011;5812;48.864;9.190;2022-11-20T03:50:53;4.00;;;4.00;;
11510;SDS011;5812;48.864;9.190;2022-11-20T03:53:32;4.10;;;4.10;;
11510;SDS011;5812;48.864;9.190;2022-11-20T03:55:57;4.27;;;4.27;;
11510;SDS011;5812;48.864;9.190;2022-11-20T03:58:23;3.93;;;3.93;;
11510;SDS011;5812;48.864;9.190;2022-11-20T04:00:48;3.97;;;3.97;;
11510;SDS011;5812;48.864;9.190;2022-11-20T04:03:14;4.00;;;4.00;;
11510;SDS011;5812;48.864;9.190;2022-11-20T04:05:40;3.50;;;3.50;;
11510;SDS011;5812;48.864;9.190;2022-11-20T04:08:05;4.00;;;4.00;;
11510;SDS011;5812;48.864;9.190;2022-11-20T04:10:31;3.97;;;3.97;;
11510;SDS011;5812;48.864;9.190;2022-11-20T04:12:56;3.77;;;3.77;;
11510;SDS011;5812;48.864;9.190;2022-11-20T04:15:22;3.80;;;3.80;;
11510;SDS011;5812;48.864;9.190;2022-11-20T04:17:47;3.13;;;3.13;;
11510;SDS011;5812;48.864;9.190;2022-11-20T04:20:13;3.63;;;3.63;;
11510;SDS011;5812;48.864;9.190;2022-11-20T04:22:39;3.20;;;3.20;;
11510;SDS011;5812;48.864;9.190;2022-11-20T04:25:05;3.67;;;3.67;;
11510;SDS011;5812;48.864;9.190;2022-11-20T04:27:30;3.77;;;3.77;;
11510;SDS011;5812;48.864;9.190;2022-11-20T04:29:56;3.13;;;3.13;;
11510;SDS011;5812;48.864;9.190;2022-11-20T04:32:22;3.33;;;3.33;;
11510;SDS011;5812;48.864;9.190;2022-11-20T04:34:47;3.73;;;3.73;;
11510;SDS011;5812;48.864;9.190;2022-11-20T04:37:13;3.80;;;3.80;;
11510;SDS011;5812;48.864;9.190;2022-11-20T04:39:38;4.03;;;4.03;;
11510;SDS011;5812;48.864;9.190;2022-11-20T04:42:04;3.43;;;3.43;;
11510;SDS011;5812;48.864;9.190;2022-11-20T04:44:48;3.40;;;3.40;;
11510;SDS011;5812;48.864;9.190;2022-11-20T04:47:13;3.13;;;3.13;;
11510;SDS011;5812;48.864;9.190;2022-11-20T04:49:39;3.33;;;3.33;;
11510;SDS011;5812;48.864;9.190;2022-11-20T04:52:05;3.47;;;3.47;;
11510;SDS011;5812;48.864;9.190;2022-11-20T04:54:30;3.03;;;3.03;;
11510;SDS011;5812;48.864;9.190;2022-11-20T04:56:56;3.77;;;3.77;;
11510;SDS011;5812;48.864;9.190;2022-11-20T04:59:21;3.50;;;3.50;;
11510;SDS011;5812;48.864;9.190;2022-11-20T05:01:47;3.63;;;3.63;;
11510;SDS011;5812;48.864;9.190;2022-11-20T05:04:13;3.10;;;3.10;;
11510;SDS011;5812;48.864;9.190;2022-11-20T05:06:38;3.50;;;3.50;;
11510;SDS011;5812;48.864;9.190;2022-11-20T05:09:04;2.93;;;2.93;;
11510;SDS011;5812;48.864;9.190;2022-11-20T05:11:31;3.63;;;3.63;;
11510;SDS011;5812;48.864;9.190;2022-11-20T05:13:57;3.40;;;3.40;;
11510;SDS011;5812;48.864;9.190;2022-11-20T05:16:24;3.37;;;3.37;;
11510;SDS011;5812;48.864;9.190;2022-11-20T05:18:50;3.27;;;3.27;;
11510;SDS011;5812;48.864;9.190;2022-11-20T05:21:17;4.00;;;4.00;;
11510;SDS011;5812;48.864;9.190;2022-11-20T05:23:44;2.83;;;2.83;;
11510;SDS011;5812;48.864;9.190;2022-11-20T05:26:17;3.70;;;3.70;;
11510;SDS011;5812;48.864;9.190;2022-11-20T05:28:48;3.30;;;3.30;;
11510;SDS011;5812;48.864;9.190;2022-11-20T05:31:15;2.90;;;2.90;;
11510;SDS011;5812;48.864;9.190;2022-11-20T05:33:43;3.23;;;3.23;;
11510;SDS011;5812;48.864;9.190;2022-11-20T05:36:10;3.20;;;3.20;;
11510;SDS011;5812;48.864;9.190;2022-11-20T05:38:37;2.40;;;2.40;;
11510;SDS011;5812;48.864;9.190;2022-11-20T05:41:24;3.13;;;3.13;;
11510;SDS011;5812;48.864;9.190;2022-11-20T05:43:49;3.00;;;3.00;;
11510;SDS011;5812;48.864;9.190;2022-11-20T05:46:16;3.20;;;3.20;;
11510;SDS011;5812;48.864;9.190;2022-11-20T05:48:44;2.90;;;2.90;;
11510;SDS011;5812;48.864;9.190;2022-11-20T05:51:11;3.20;;;3.20;;
11510;SDS011;5812;48.864;9.190;2022-11-20T05:53:39;3.10;;;3.10;;
11510;SDS011;5812;48.864;9.190;2022-11-20T05:56:26;3.30;;;3.30;;
11510;SDS011;5812;48.864;9.190;2022-11-20T05:58:51;3.13;;;3.13;;
11510;SDS011;5812;48.864;9.190;2022-11-20T06:03:43;2.93;;;2.93;;
11510;SDS011;5812;48.864;9.190;2022-11-20T06:06:13;3.57;;;3.57;;
11510;SDS011;5812;48.864;9.190;2022-11-20T06:08:39;3.20;;;3.20;;
11510;SDS011;5812;48.864;9.190;2022-11-20T06:11:06;3.40;;;3.40;;
11510;SDS011;5812;48.864;9.190;2022-11-20T06:13:33;2.90;;;2.90;;
11510;SDS011;5812;48.864;9.190;2022-11-20T06:15:59;2.70;;;2.70;;
11510;SDS011;5812;48.864;9.190;2022-11-20T06:18:25;3.17;;;3.17;;
11510;SDS011;5812;48.864;9.190;2022-11-20T06:21:26;3.13;;;3.13;;
11510;SDS011;5812;48.864;9.190;2022-11-20T06:23:46;3.20;;;3.20;;
11510;SDS011;5812;48.864;9.190;2022-11-20T06:26:14;2.80;;;2.80;;
11510;SDS011;5812;48.864;9.190;2022-11-20T06:28:41;2.80;;;2.80;;
11510;SDS011;5812;48.864;9.190;2022-11-20T06:31:07;3.50;;;3.50;;
11510;SDS011;5812;48.864;9.190;2022-11-20T06:33:36;2.70;;;2.70;;
11510;SDS011;5812;48.864;9.190;2022-11-20T06:36:02;2.93;;;2.93;;
11510;SDS011;5812;48.864;9.190;2022-11-20T06:38:29;2.60;;;2.60;;
11510;SDS011;5812;48.864;9.190;2022-11-20T06:40:55;3.13;;;3.13;;
11510;SDS011;5812;48.864;9.190;2022-11-20T06:43:21;3.00;;;3.00;;
11510;SDS011;5812;48.864;9.190;2022-11-20T06:45:51;3.10;;;3.10;;
11510;SDS011;5812;48.864;9.190;2022-11-20T06:48:18;3.27;;;3.27;;
11510;SDS011;5812;48.864;9.190;2022-11-20T06:50:43;3.70;;;3.70;;
11510;SDS011;5812;48.864;9.190;2022-11-20T06:53:09;3.00;;;3.00;;
11510;SDS011;5812;48.864;9.190;2022-11-20T06:55:34;3.00;;;3.00;;
11510;SDS011;5812;48.864;9.190;2022-11-20T06:58:00;3.53;;;3.53;;
11510;SDS011;5812;48.864;9.190;2022-11-20T07:00:25;3.13;;;3.13;;
11510;SDS011;5812;48.864;9.190;2022-11-20T07:02:51;3.50;;;3.50;;
11510;SDS011;5812;48.864;9.190;2022-11-20T07:05:17;2.80;;;2.80;;
11510;SDS011;5812;48.864;9.190;2022-11-20T07:07:42;2.70;;;2.70;;
11510;SDS011;5812;48.864;9.190;2022-11-20T07:10:08;2.17;;;2.17;;
11510;SDS011;5812;48.864;9.190;2022-11-20T07:12:34;1.90;;;1.90;;
11510;SDS011;5812;48.864;9.190;2022-11-20T07:15:00;2.20;;;2.20;;
11510;SDS011;5812;48.864;9.190;2022-11-20T07:17:26;1.83;;;1.83;;
11510;SDS011;5812;48.864;9.190;2022-11-20T07:19:51;1.90;;;1.90;;
11510;SDS011;5812;48.864;9.190;2022-11-20T07:22:17;1.70;;;1.70;;
11510;SDS011;5812;48.864;9.190;2022-11-20T07:24:43;1.50;;;1.50;;
11510;SDS011;5812;48.864;9.190;2022-11-20T07:27:08;1.77;;;1.77;;
11510;SDS011;5812;48.864;9.190;2022-11-20T07:29:34;1.60;;;1.60;;
11510;SDS011;5812;48.864;9.190;2022-11-20T07:31:59;1.73;;;1.73;;
11510;SDS011;5812;48.864;9.190;2022-11-20T07:34:25;1.73;;;1.73;;
11510;SDS011;5812;48.864;9.190;2022-11-20T07:36:51;1.50;;;1.50;;
11510;SDS011;5812;48.864;9.190;2022-11-20T07:39:16;2.00;;;2.00;;
11510;SDS011;5812;48.864;9.190;2022-11-20T07:41:42;2.03;;;2.03;;
11510;SDS011;5812;48.864;9.190;2022-11-20T07:44:07;1.80;;;1.80;;
11510;SDS011;5812;48.864;9.190;2022-11-20T07:46:33;1.70;;;1.70;;
11510;SDS011;5812;48.864;9.190;2022-11-20T07:48:58;1.40;;;1.40;;
11510;SDS011;5812;48.864;9.190;2022-11-20T07:51:24;1.40;;;1.40;;
11510;SDS011;5812;48.864;9.190;2022-11-20T07:53:51;1.43;;;1.43;;
11510;SDS011;5812;48.864;9.190;2022-11-20T07:56:17;1.53;;;1.53;;
11510;SDS011;5812;48.864;9.190;2022-11-20T07:58:42;1.40;;;1.40;;
11510;SDS011;5812;48.864;9.190;2022-11-20T08:01:08;1.50;;;1.50;;
11510;SDS011;5812;48.864;9.190;2022-11-20T08:03:34;1.50;;;1.50;;
11510;SDS011;5812;48.864;9.190;2022-11-20T08:06:02;1.80;;;1.80;;
11510;SDS011;5812;48.864;9.190;2022-11-20T08:08:28;1.90;;;1.90;;
11510;SDS011;5812;48.864;9.190;2022-11-20T08:10:54;1.47;;;1.47;;
11510;SDS011;5812;48.864;9.190;2022-11-20T08:13:41;1.47;;;1.47;;
11510;SDS011;5812;48.864;9.190;2022-11-20T08:16:25;1.90;;;1.90;;
11510;SDS011;5812;48.864;9.190;2022-11-20T08:18:50;1.60;;;1.60;;
11510;SDS011;5812;48.864;9.190;2022-11-20T08:21:16;1.70;;;1.70;;
11510;SDS011;5812;48.864;9.190;2022-11-20T08:23:41;1.50;;;1.50;;
11510;SDS011;5812;48.864;9.190;2022-11-20T08:26:07;1.80;;;1.80;;
11510;SDS011;5812;48.864;9.190;2022-11-20T08:28:33;1.30;;;1.30;;
11510;SDS011;5812;48.864;9.190;2022-11-20T08:30:59;1.37;;;1.37;;
11510;SDS011;5812;48.864;9.190;2022-11-20T08:33:25;1.63;;;1.63;;
11510;SDS011;5812;48.864;9.190;2022-11-20T08:35:51;1.43;;;1.43;;
11510;SDS011;5812;48.864;9.190;2022-11-20T08:38:16;1.20;;;1.20;;
11510;SDS011;5812;48.864;9.190;2022-11-20T08:40:42;1.00;;;1.00;;
11510;SDS011;5812;48.864;9.190;2022-11-20T08:43:27;1.00;;;1.00;;
11510;SDS011;5812;48.864;9.190;2022-11-20T08:45:53;0.90;;;0.90;;
11510;SDS011;5812;48.864;9.190;2022-11-20T08:48:21;0.90;;;0.90;;
11510;SDS011;5812;48.864;9.190;2022-11-20T08:50:46;0.80;;;0.80;;
11510;SDS011;5812;48.864;9.190;2022-11-20T08:53:12;0.97;;;0.97;;
11510;SDS011;5812;48.864;9.190;2022-11-20T08:55:37;0.80;;;0.80;;
11510;SDS011;5812;48.864;9.190;2022-11-20T08:58:04;0.70;;;0.70;;
11510;SDS011;5812;48.864;9.190;2022-11-20T09:00:30;0.70;;;0.70;;
11510;SDS011;5812;48.864;9.190;2022-11-20T09:02:57;0.47;;;0.47;;
11510;SDS011;5812;48.864;9.190;2022-11-20T09:05:23;0.80;;;0.80;;
11510;SDS011;5812;48.864;9.190;2022-11-20T09:07:49;0.57;;;0.57;;
11510;SDS011;5812;48.864;9.190;2022-11-20T09:10:14;0.60;;;0.60;;
11510;SDS011;5812;48.864;9.190;2022-11-20T09:12:40;0.77;;;0.77;;
11510;SDS011;5812;48.864;9.190;2022-11-20T09:15:06;0.60;;;0.60;;
11510;SDS011;5812;48.864;9.190;2022-11-20T09:17:32;0.80;;;0.80;;
11510;SDS011;5812;48.864;9.190;2022-11-20T09:19:57;0.63;;;0.63;;
11510;SDS011;5812;48.864;9.190;2022-11-20T09:22:23;0.63;;;0.63;;
11510;SDS011;5812;48.864;9.190;2022-11-20T09:24:49;0.60;;;0.60;;
11510;SDS011;5812;48.864;9.190;2022-11-20T09:27:14;0.40;;;0.40;;
11510;SDS011;5812;48.864;9.190;2022-11-20T09:29:45;0.60;;;0.60;;
11510;SDS011;5812;48.864;9.190;2022-11-20T09:32:10;0.67;;;0.67;;
11510;SDS011;5812;48.864;9.190;2022-11-20T09:34:36;0.60;;;0.60;;
11510;SDS011;5812;48.864;9.190;2022-11-20T09:37:02;0.60;;;0.60;;
11510;SDS011;5812;48.864;9.190;2022-11-20T09:39:27;0.73;;;0.73;;
11510;SDS011;5812;48.864;9.190;2022-11-20T09:50:31;0.80;;;0.80;;
11510;SDS011;5812;48.864;9.190;2022-11-20T09:56:00;0.73;;;0.73;;
11510;SDS011;5812;48.864;9.190;2022-11-20T09:58:35;0.70;;;0.70;;
11510;SDS011;5812;48.864;9.190;2022-11-20T10:01:11;0.80;;;0.80;;
11510;SDS011;5812;48.864;9.190;2022-11-20T10:06:32;0.70;;;0.70;;
11510;SDS011;5812;48.864;9.190;2022-11-20T10:09:14;0.67;;;0.67;;
11510;SDS011;5812;48.864;9.190;2022-11-20T10:12:05;0.90;;;0.90;;
11510;SDS011;5812;48.864;9.190;2022-11-20T10:25:38;1.00;;;1.00;;
11510;SDS011;5812;48.864;9.190;2022-11-20T10:30:31;0.70;;;0.70;;
11510;SDS011;5812;48.864;9.190;2022-11-20T10:33:13;0.80;;;0.80;;
11510;SDS011;5812;48.864;9.190;2022-11-20T10:36:02;1.20;;;1.20;;
11510;SDS011;5812;48.864;9.190;2022-11-20T10:38:37;1.00;;;1.00;;
11510;SDS011;5812;48.864;9.190;2022-11-20T10:41:07;0.80;;;0.80;;
11510;SDS011;5812;48.864;9.190;2022-11-20T10:43:56;1.00;;;1.00;;
11510;SDS011;5812;48.864;9.190;2022-11-20T10:46:30;1.00;;;1.00;;
11510;SDS011;5812;48.864;9.190;2022-11-20T10:49:02;0.90;;;0.90;;
11510;SDS011;5812;48.864;9.190;2022-11-20T10:57:54;0.90;;;0.90;;
11510;SDS011;5812;48.864;9.190;2022-11-20T11:00:27;1.10;;;1.10;;
11510;SDS011;5812;48.864;9.190;2022-11-20T11:02:55;1.20;;;1.20;;
11510;SDS011;5812;48.864;9.190;2022-11-20T11:05:41;1.30;;;1.30;;
11510;SDS011;5812;48.864;9.190;2022-11-20T11:08:19;1.40;;;1.40;;
11510;SDS011;5812;48.864;9.190;2022-11-20T11:10:51;1.50;;;1.50;;
11510;SDS011;5812;48.864;9.190;2022-11-20T11:13:22;1.23;;;1.23;;
11510;SDS011;5812;48.864;9.190;2022-11-20T11:15:53;1.87;;;1.87;;
11510;SDS011;5812;48.864;9.190;2022-11-20T11:18:26;1.17;;;1.17;;
11510;SDS011;5812;48.864;9.190;2022-11-20T11:20:54;1.30;;;1.30;;
11510;SDS011;5812;48.864;9.190;2022-11-20T11:23:37;1.33;;;1.33;;
11510;SDS011;5812;48.864;9.190;2022-11-20T11:26:06;1.27;;;1.27;;
11510;SDS011;5812;48.864;9.190;2022-11-20T11:28:42;1.10;;;1.10;;
11510;SDS011;5812;48.864;9.190;2022-11-20T11:31:22;1.03;;;1.03;;
11510;SDS011;5812;48.864;9.190;2022-11-20T11:33:52;1.30;;;1.30;;
11510;SDS011;5812;48.864;9.190;2022-11-20T11:36:28;1.50;;;1.50;;
11510;SDS011;5812;48.864;9.190;2022-11-20T11:38:54;1.40;;;1.40;;
11510;SDS011;5812;48.864;9.190;2022-11-20T11:41:22;1.40;;;1.40;;
11510;SDS011;5812;48.864;9.190;2022-11-20T11:43:51;1.23;;;1.23;;
11510;SDS011;5812;48.864;9.190;2022-11-20T11:46:38;1.00;;;1.00;;
11510;SDS011;5812;48.864;9.190;2022-11-20T11:54:41;1.20;;;1.20;;
11510;SDS011;5812;48.864;9.190;2022-11-20T12:07:46;1.37;;;1.37;;
11510;SDS011;5812;48.864;9.190;2022-11-20T12:10:20;0.83;;;0.83;;
11510;SDS011;5812;48.864;9.190;2022-11-20T12:12:52;0.70;;;0.70;;
11510;SDS011;5812;48.864;9.190;2022-11-20T12:15:30;0.80;;;0.80;;
11510;SDS011;5812;48.864;9.190;2022-11-20T12:17:59;0.60;;;0.60;;
11510;SDS011;5812;48.864;9.190;2022-11-20T12:21:08;0.60;;;0.60;;
11510;SDS011;5812;48.864;9.190;2022-11-20T12:26:00;0.80;;;0.80;;
11510;SDS011;5812;48.864;9.190;2022-11-20T12:28:52;0.73;;;0.73;;
11510;SDS011;5812;48.864;9.190;2022-11-20T12:34:19;0.83;;;0.83;;
11510;SDS011;5812;48.864;9.190;2022-11-20T12:39:46;1.00;;;1.00;;
11510;SDS011;5812;48.864;9.190;2022-11-20T12:45:33;0.57;;;0.57;;
11510;SDS011;5812;48.864;9.190;2022-11-20T12:53:31;0.40;;;0.40;;
11510;SDS011;5812;48.864;9.190;2022-11-20T12:56:28;0.77;;;0.77;;
11510;SDS011;5812;48.864;9.190;2022-11-20T12:59:24;0.70;;;0.70;;
11510;SDS011;5812;48.864;9.190;2022-11-20T13:02:09;0.70;;;0.70;;
11510;SDS011;5812;48.864;9.190;2022-11-20T13:04:50;0.80;;;0.80;;
11510;SDS011;5812;48.864;9.190;2022-11-20T13:07:40;0.80;;;0.80;;
11510;SDS011;5812;48.864;9.190;2022-11-20T13:10:10;0.60;;;0.60;;
11510;SDS011;5812;48.864;9.190;2022-11-20T13:12:44;0.77;;;0.77;;
11510;SDS011;5812;48.864;9.190;2022-11-20T13:15:26;0.70;;;0.70;;
11510;SDS011;5812;48.864;9.190;2022-11-20T13:17:59;0.90;;;0.90;;
11510;SDS011;5812;48.864;9.190;2022-11-20T13:20:30;0.80;;;0.80;;
11510;SDS011;5812;48.864;9.190;2022-11-20T13:22:58;1.00;;;1.00;;
11510;SDS011;5812;48.864;9.190;2022-11-20T13:25:31;0.50;;;0.50;;
11510;SDS011;5812;48.864;9.190;2022-11-20T13:27:59;0.80;;;0.80;;
11510;SDS011;5812;48.864;9.190;2022-11-20T13:30:29;0.80;;;0.80;;
11510;SDS011;5812;48.864;9.190;2022-11-20T13:35:36;1.20;;;1.20;;
11510;SDS011;5812;48.864;9.190;2022-11-20T13:46:05;0.57;;;0.57;;
11510;SDS011;5812;48.864;9.190;2022-11-20T13:48:43;0.60;;;0.60;;
11510;SDS011;5812;48.864;9.190;2022-11-20T14:02:17;0.83;;;0.83;;
11510;SDS011;5812;48.864;9.190;2022-11-20T14:04:45;0.83;;;0.83;;
11510;SDS011;5812;48.864;9.190;2022-11-20T14:07:13;0.80;;;0.80;;
11510;SDS011;5812;48.864;9.190;2022-11-20T14:09:49;0.63;;;0.63;;
11510;SDS011;5812;48.864;9.190;2022-11-20T14:12:23;1.00;;;1.00;;
11510;SDS011;5812;48.864;9.190;2022-11-20T14:14:56;0.70;;;0.70;;
11510;SDS011;5812;48.864;9.190;2022-11-20T14:19:53;0.80;;;0.80;;
11510;SDS011;5812;48.864;9.190;2022-11-20T14:22:22;0.57;;;0.57;;
11510;SDS011;5812;48.864;9.190;2022-11-20T14:27:37;0.73;;;0.73;;
11510;SDS011;5812;48.864;9.190;2022-11-20T14:30:12;0.90;;;0.90;;
11510;SDS011;5812;48.864;9.190;2022-11-20T14:32:41;0.87;;;0.87;;
11510;SDS011;5812;48.864;9.190;2022-11-20T14:35:08;0.73;;;0.73;;
11510;SDS011;5812;48.864;9.190;2022-11-20T14:37:39;0.90;;;0.90;;
11510;SDS011;5812;48.864;9.190;2022-11-20T14:40:26;0.67;;;0.67;;
11510;SDS011;5812;48.864;9.190;2022-11-20T14:43:15;2.20;;;2.20;;
11510;SDS011;5812;48.864;9.190;2022-11-20T14:45:42;1.43;;;1.43;;
11510;SDS011;5812;48.864;9.190;2022-11-20T14:48:08;1.70;;;1.70;;
11510;SDS011;5812;48.864;9.190;2022-11-20T14:50:35;1.40;;;1.40;;
11510;SDS011;5812;48.864;9.190;2022-11-20T14:53:03;1.70;;;1.70;;
11510;SDS011;5812;48.864;9.190;2022-11-20T14:57:55;2.67;;;2.67;;
11510;SDS011;5812;48.864;9.190;2022-11-20T15:00:22;9.03;;;9.03;;
11510;SDS011;5812;48.864;9.190;2022-11-20T15:02:49;3.83;;;3.83;;
11510;SDS011;5812;48.864;9.190;2022-11-20T15:05:17;2.87;;;2.87;;
11510;SDS011;5812;48.864;9.190;2022-11-20T15:07:45;2.33;;;2.33;;
11510;SDS011;5812;48.864;9.190;2022-11-20T15:10:23;1.90;;;1.90;;
11510;SDS011;5812;48.864;9.190;2022-11-20T15:12:54;2.40;;;2.40;;
11510;SDS011;5812;48.864;9.190;2022-11-20T15:18:17;1.60;;;1.60;;
11510;SDS011;5812;48.864;9.190;2022-11-20T15:20:52;1.50;;;1.50;;
11510;SDS011;5812;48.864;9.190;2022-11-20T15:23:21;2.30;;;2.30;;
11510;SDS011;5812;48.864;9.190;2022-11-20T15:25:46;1.90;;;1.90;;
11510;SDS011;5812;48.864;9.190;2022-11-20T15:28:33;2.63;;;2.63;;
11510;SDS011;5812;48.864;9.190;2022-11-20T15:31:00;2.00;;;2.00;;
11510;SDS011;5812;48.864;9.190;2022-11-20T15:33:27;1.67;;;1.67;;
11510;SDS011;5812;48.864;9.190;2022-11-20T15:35:53;2.00;;;2.00;;
11510;SDS011;5812;48.864;9.190;2022-11-20T15:38:19;2.87;;;2.87;;
11510;SDS011;5812;48.864;9.190;2022-11-20T15:40:45;2.43;;;2.43;;
11510;SDS011;5812;48.864;9.190;2022-11-20T15:43:10;3.13;;;3.13;;
11510;SDS011;5812;48.864;9.190;2022-11-20T15:45:37;1.87;;;1.87;;
11510;SDS011;5812;48.864;9.190;2022-11-20T15:48:17;2.57;;;2.57;;
11510;SDS011;5812;48.864;9.190;2022-11-20T15:51:11;2.20;;;2.20;;
11510;SDS011;5812;48.864;9.190;2022-11-20T15:53:41;1.27;;;1.27;;
11510;SDS011;5812;48.864;9.190;2022-11-20T15:56:09;1.87;;;1.87;;
11510;SDS011;5812;48.864;9.190;2022-11-20T15:58:37;1.90;;;1.90;;
11510;SDS011;5812;48.864;9.190;2022-11-20T16:01:03;1.90;;;1.90;;
11510;SDS011;5812;48.864;9.190;2022-11-20T16:03:28;2.17;;;2.17;;
11510;SDS011;5812;48.864;9.190;2022-11-20T16:05:55;2.20;;;2.20;;
11510;SDS011;5812;48.864;9.190;2022-11-20T16:08:20;1.90;;;1.90;;
11510;SDS011;5812;48.864;9.190;2022-11-20T16:10:46;2.00;;;2.00;;
11510;SDS011;5812;48.864;9.190;2022-11-20T16:13:15;2.27;;;2.27;;
11510;SDS011;5812;48.864;9.190;2022-11-20T16:16:02;2.23;;;2.23;;
11510;SDS011;5812;48.864;9.190;2022-11-20T16:18:35;2.90;;;2.90;;
11510;SDS011;5812;48.864;9.190;2022-11-20T16:21:00;2.17;;;2.17;;
11510;SDS011;5812;48.864;9.190;2022-11-20T16:23:26;2.43;;;2.43;;
11510;SDS011;5812;48.864;9.190;2022-11-20T16:25:52;2.30;;;2.30;;
11510;SDS011;5812;48.864;9.190;2022-11-20T16:28:18;2.63;;;2.63;;
11510;SDS011;5812;48.864;9.190;2022-11-20T16:30:44;1.80;;;1.80;;
11510;SDS011;5812;48.864;9.190;2022-11-20T16:33:11;2.10;;;2.10;;
11510;SDS011;5812;48.864;9.190;2022-11-20T16:35:42;1.90;;;1.90;;
11510;SDS011;5812;48.864;9.190;2022-11-20T16:38:07;2.10;;;2.10;;
11510;SDS011;5812;48.864;9.190;2022-11-20T16:40:34;1.80;;;1.80;;
11510;SDS011;5812;48.864;9.190;2022-11-20T16:43:06;2.20;;;2.20;;
11510;SDS011;5812;48.864;9.190;2022-11-20T16:45:42;1.87;;;1.87;;
11510;SDS011;5812;48.864;9.190;2022-11-20T16:48:12;1.60;;;1.60;;
11510;SDS011;5812;48.864;9.190;2022-11-20T16:50:49;2.00;;;2.00;;
11510;SDS011;5812;48.864;9.190;2022-11-20T16:53:17;2.20;;;2.20;;
11510;SDS011;5812;48.864;9.190;2022-11-20T16:55:44;2.20;;;2.20;;